createdAt,value
2022-12-17T00:00:16.943Z,19.5
2022-12-17T00:01:17.505Z,19.6
2022-12-17T00:02:18.122Z,18.6
2022-12-17T00:03:18.780Z,18.5
2022-12-17T00:04:19.395Z,17.6
2022-12-17T00:05:19.944Z,18.1
2022-12-17T00:06:20.539Z,18.2
2022-12-17T00:07:21.130Z,16.7
2022-12-17T00:08:21.724Z,17.0
2022-12-17T00:09:22.314Z,16.3
2022-12-17T00:10:22.912Z,17.9
2022-12-17T00:11:23.501Z,17.5
2022-12-17T00:12:24.098Z,17.6
2022-12-17T00:13:24.689Z,18.0
2022-12-17T00:14:25.287Z,18.0
2022-12-17T00:15:25.877Z,17.8
2022-12-17T00:16:26.536Z,17.6
2022-12-17T00:17:27.160Z,15.7
2022-12-17T00:18:27.755Z,17.1
2022-12-17T00:19:28.347Z,16.4
2022-12-17T00:20:28.958Z,16.5
2022-12-17T00:21:29.551Z,15.7
2022-12-17T00:22:30.145Z,16.3
2022-12-17T00:23:30.736Z,16.4
2022-12-17T00:24:31.332Z,17.3
2022-12-17T00:25:31.932Z,18.7
2022-12-17T00:26:32.521Z,20.0
2022-12-17T00:27:33.135Z,19.1
2022-12-17T00:28:33.729Z,19.1
2022-12-17T00:29:34.325Z,17.7
2022-12-17T00:30:34.916Z,15.8
2022-12-17T00:31:35.573Z,17.2
2022-12-17T00:32:36.145Z,16.1
2022-12-17T00:33:37.274Z,16.3
2022-12-17T00:34:38.112Z,17.4
2022-12-17T00:35:38.702Z,18.0
2022-12-17T00:36:39.297Z,19.5
2022-12-17T00:37:39.909Z,22.8
2022-12-17T00:38:40.503Z,21.9
2022-12-17T00:39:41.096Z,25.1
2022-12-17T00:40:41.695Z,24.1
2022-12-17T00:41:42.285Z,24.6
2022-12-17T00:42:42.879Z,25.7
2022-12-17T00:43:43.492Z,25.7
2022-12-17T00:44:44.083Z,25.9
2022-12-17T00:45:44.676Z,26.6
2022-12-17T00:46:45.350Z,25.5
2022-12-17T00:47:45.935Z,26.2
2022-12-17T00:48:46.534Z,25.7
2022-12-17T00:49:47.120Z,26.9
2022-12-17T00:50:47.716Z,28.0
2022-12-17T00:51:48.310Z,29.5
2022-12-17T00:52:48.902Z,28.6
2022-12-17T00:53:49.496Z,27.3
2022-12-17T00:54:50.091Z,26.7
2022-12-17T00:55:50.686Z,26.8
2022-12-17T00:56:51.275Z,25.7
2022-12-17T00:57:52.403Z,25.4
2022-12-17T00:58:52.997Z,25.1
2022-12-17T00:59:54.219Z,26.6
2022-12-17T01:00:55.824Z,26.9
2022-12-17T01:01:57.029Z,27.4
2022-12-17T01:02:57.811Z,27.1
2022-12-17T01:03:58.272Z,26.5
2022-12-17T01:04:58.867Z,26.9
2022-12-17T01:05:59.458Z,28.3
2022-12-17T01:07:00.054Z,28.2
2022-12-17T01:08:00.648Z,27.0
2022-12-17T01:09:01.243Z,25.6
2022-12-17T01:10:01.837Z,27.1
2022-12-17T01:11:02.430Z,26.5
2022-12-17T01:12:03.023Z,25.9
2022-12-17T01:13:03.617Z,26.8
2022-12-17T01:14:04.209Z,27.5
2022-12-17T01:15:04.802Z,27.4
2022-12-17T01:16:05.433Z,25.7
2022-12-17T01:17:05.989Z,26.3
2022-12-17T01:18:06.584Z,27.5
2022-12-17T01:19:07.184Z,27.4
2022-12-17T01:20:07.771Z,26.9
2022-12-17T01:21:08.363Z,27.9
2022-12-17T01:22:08.955Z,27.6
2022-12-17T01:23:10.329Z,26.3
2022-12-17T01:24:10.941Z,27.4
2022-12-17T01:25:11.557Z,27.6
2022-12-17T01:26:12.146Z,28.6
2022-12-17T01:27:12.740Z,27.9
2022-12-17T01:28:13.332Z,27.4
2022-12-17T01:29:13.928Z,28.4
2022-12-17T01:30:14.520Z,26.9
2022-12-17T01:31:15.179Z,25.6
2022-12-17T01:32:15.752Z,27.4
2022-12-17T01:33:16.407Z,26.1
2022-12-17T01:34:16.953Z,27.5
2022-12-17T01:35:17.553Z,25.8
2022-12-17T01:36:18.139Z,27.1
2022-12-17T01:37:18.752Z,27.9
2022-12-17T01:38:19.367Z,28.1
2022-12-17T01:39:19.960Z,28.3
2022-12-17T01:40:20.554Z,27.3
2022-12-17T01:41:21.145Z,27.8
2022-12-17T01:42:21.737Z,28.1
2022-12-17T01:43:22.331Z,27.1
2022-12-17T01:44:22.923Z,27.4
2022-12-17T01:45:23.602Z,27.7
2022-12-17T01:46:24.177Z,28.6
2022-12-17T01:47:24.773Z,27.9
2022-12-17T01:48:25.367Z,28.1
2022-12-17T01:49:25.959Z,26.8
2022-12-17T01:50:26.550Z,28.0
2022-12-17T01:51:27.144Z,28.0
2022-12-17T01:52:27.738Z,27.8
2022-12-17T01:53:28.332Z,26.5
2022-12-17T01:54:28.946Z,25.9
2022-12-17T01:55:29.539Z,27.3
2022-12-17T01:56:30.152Z,28.2
2022-12-17T01:57:30.744Z,27.3
2022-12-17T01:58:31.356Z,27.8
2022-12-17T01:59:31.953Z,27.6
2022-12-17T02:00:32.646Z,29.3
2022-12-17T02:01:33.396Z,27.8
2022-12-17T02:02:34.069Z,28.1
2022-12-17T02:03:35.009Z,26.6
2022-12-17T02:04:35.762Z,25.3
2022-12-17T02:05:36.355Z,26.0
2022-12-17T02:06:36.953Z,29.0
2022-12-17T02:07:37.615Z,27.7
2022-12-17T02:08:38.173Z,28.3
2022-12-17T02:09:38.765Z,26.9
2022-12-17T02:10:39.355Z,26.4
2022-12-17T02:11:39.973Z,26.8
2022-12-17T02:12:40.561Z,26.4
2022-12-17T02:13:41.156Z,26.6
2022-12-17T02:14:41.751Z,25.8
2022-12-17T02:15:42.367Z,26.7
2022-12-17T02:16:43.022Z,26.8
2022-12-17T02:17:43.590Z,25.8
2022-12-17T02:18:44.182Z,25.1
2022-12-17T02:19:44.781Z,26.4
2022-12-17T02:20:45.390Z,26.7
2022-12-17T02:21:45.983Z,26.3
2022-12-17T02:22:46.591Z,25.8
2022-12-17T02:23:47.172Z,24.9
2022-12-17T02:24:47.762Z,26.3
2022-12-17T02:25:48.356Z,25.0
2022-12-17T02:26:48.948Z,26.0
2022-12-17T02:27:49.542Z,24.9
2022-12-17T02:28:50.133Z,25.7
2022-12-17T02:29:50.729Z,26.0
2022-12-17T02:30:51.324Z,26.5
2022-12-17T02:31:51.995Z,25.4
2022-12-17T02:32:52.591Z,25.9
2022-12-17T02:33:53.181Z,24.3
2022-12-17T02:34:53.777Z,24.3
2022-12-17T02:35:54.368Z,23.8
2022-12-17T02:36:55.955Z,24.6
2022-12-17T02:37:56.546Z,22.9
2022-12-17T02:38:57.141Z,23.9
2022-12-17T02:39:57.733Z,24.3
2022-12-17T02:40:58.328Z,22.4
2022-12-17T02:41:58.922Z,23.4
2022-12-17T02:42:59.516Z,22.9
2022-12-17T02:44:00.112Z,22.4
2022-12-17T02:45:00.724Z,23.3
2022-12-17T02:46:01.396Z,23.6
2022-12-17T02:47:01.973Z,23.0
2022-12-17T02:48:02.562Z,23.1
2022-12-17T02:49:03.157Z,24.1
2022-12-17T02:50:03.762Z,23.9
2022-12-17T02:51:04.344Z,23.0
2022-12-17T02:52:04.958Z,23.9
2022-12-17T02:53:05.550Z,23.9
2022-12-17T02:54:06.164Z,24.5
2022-12-17T02:55:06.758Z,23.7
2022-12-17T02:56:07.370Z,24.5
2022-12-17T02:57:07.964Z,25.8
2022-12-17T02:58:08.557Z,25.3
2022-12-17T02:59:09.152Z,24.0
2022-12-17T03:00:09.745Z,24.8
2022-12-17T03:01:10.368Z,25.5
2022-12-17T03:02:11.028Z,24.5
2022-12-17T03:03:11.715Z,25.2
2022-12-17T03:04:12.256Z,26.0
2022-12-17T03:05:36.002Z,24.8
2022-12-17T03:06:14.437Z,25.7
2022-12-17T03:07:15.056Z,26.4
2022-12-17T03:08:15.627Z,26.4
2022-12-17T03:09:16.239Z,27.1
2022-12-17T03:10:16.831Z,26.1
2022-12-17T03:11:17.433Z,25.9
2022-12-17T03:12:18.020Z,25.5
2022-12-17T03:13:18.616Z,24.9
2022-12-17T03:14:19.210Z,25.6
2022-12-17T03:15:19.801Z,25.3
2022-12-17T03:16:20.401Z,25.2
2022-12-17T03:17:21.004Z,25.7
2022-12-17T03:18:21.597Z,24.0
2022-12-17T03:19:22.209Z,24.1
2022-12-17T03:20:22.801Z,25.2
2022-12-17T03:21:23.394Z,26.7
2022-12-17T03:22:23.986Z,25.2
2022-12-17T03:23:24.599Z,25.3
2022-12-17T03:24:25.213Z,25.4
2022-12-17T03:25:25.826Z,25.1
2022-12-17T03:26:26.418Z,24.7
2022-12-17T03:27:27.016Z,23.7
2022-12-17T03:28:27.602Z,23.8
2022-12-17T03:29:28.197Z,24.2
2022-12-17T03:30:31.023Z,24.4
2022-12-17T03:31:29.454Z,25.1
2022-12-17T03:32:30.054Z,23.4
2022-12-17T03:33:30.638Z,23.5
2022-12-17T03:34:31.241Z,23.4
2022-12-17T03:35:31.844Z,23.7
2022-12-17T03:36:32.438Z,23.7
2022-12-17T03:37:33.051Z,23.1
2022-12-17T03:38:33.644Z,25.0
2022-12-17T03:39:34.238Z,24.1
2022-12-17T03:40:34.853Z,24.1
2022-12-17T03:41:35.454Z,23.2
2022-12-17T03:42:36.041Z,24.4
2022-12-17T03:43:36.888Z,24.3
2022-12-17T03:44:37.720Z,23.5
2022-12-17T03:45:38.386Z,22.6
2022-12-17T03:46:38.924Z,25.8
2022-12-17T03:47:39.517Z,24.3
2022-12-17T03:48:40.109Z,25.3
2022-12-17T03:49:40.756Z,25.1
2022-12-17T03:50:41.319Z,24.3
2022-12-17T03:51:41.913Z,23.6
2022-12-17T03:52:42.529Z,25.8
2022-12-17T03:53:43.122Z,23.6
2022-12-17T03:54:43.716Z,24.9
2022-12-17T03:55:44.313Z,23.9
2022-12-17T03:56:44.904Z,24.0
2022-12-17T03:57:45.513Z,23.6
2022-12-17T03:58:46.107Z,21.9
2022-12-17T03:59:46.705Z,18.8
2022-12-17T04:00:47.294Z,16.2
2022-12-17T04:01:47.994Z,15.3
2022-12-17T04:02:48.625Z,13.7
2022-12-17T04:03:49.327Z,16.5
2022-12-17T04:04:49.904Z,13.9
2022-12-17T04:05:50.495Z,13.2
2022-12-17T04:06:51.092Z,15.5
2022-12-17T04:07:51.688Z,14.6
2022-12-17T04:08:52.276Z,19.8
2022-12-17T04:09:52.873Z,19.1
2022-12-17T04:10:53.961Z,17.2
2022-12-17T04:11:54.750Z,17.1
2022-12-17T04:12:55.342Z,15.7
2022-12-17T04:13:55.938Z,14.0
2022-12-17T04:14:56.530Z,14.1
2022-12-17T04:15:57.183Z,14.6
2022-12-17T04:16:57.743Z,14.1
2022-12-17T04:17:58.337Z,14.3
2022-12-17T04:18:58.932Z,14.9
2022-12-17T04:19:59.526Z,15.6
2022-12-17T04:21:00.121Z,15.8
2022-12-17T04:22:00.735Z,19.2
2022-12-17T04:23:01.353Z,19.2
2022-12-17T04:24:01.944Z,18.6
2022-12-17T04:25:02.543Z,17.3
2022-12-17T04:26:03.129Z,17.5
2022-12-17T04:27:03.744Z,17.7
2022-12-17T04:28:04.338Z,16.7
2022-12-17T04:29:04.930Z,18.8
2022-12-17T04:30:05.525Z,21.3
2022-12-17T04:31:06.135Z,20.4
2022-12-17T04:32:06.738Z,21.0
2022-12-17T04:33:07.351Z,21.0
2022-12-17T04:34:07.945Z,20.9
2022-12-17T04:35:08.538Z,20.6
2022-12-17T04:36:09.132Z,21.1
2022-12-17T04:37:09.724Z,21.4
2022-12-17T04:38:10.338Z,20.2
2022-12-17T04:39:10.931Z,20.8
2022-12-17T04:40:11.543Z,20.7
2022-12-17T04:41:12.141Z,21.1
2022-12-17T04:42:12.748Z,20.2
2022-12-17T04:43:13.340Z,21.0
2022-12-17T04:44:13.934Z,20.9
2022-12-17T04:45:14.524Z,19.5
2022-12-17T04:46:15.162Z,20.2
2022-12-17T04:47:15.788Z,21.3
2022-12-17T04:48:16.379Z,20.9
2022-12-17T04:49:16.972Z,20.5
2022-12-17T04:50:17.567Z,18.8
2022-12-17T04:51:18.161Z,19.6
2022-12-17T04:52:18.754Z,22.0
2022-12-17T04:53:19.347Z,21.2
2022-12-17T04:54:19.943Z,20.7
2022-12-17T04:55:20.536Z,21.4
2022-12-17T04:56:21.131Z,21.8
2022-12-17T04:57:21.721Z,20.3
2022-12-17T04:58:22.314Z,21.6
2022-12-17T04:59:22.907Z,21.2
2022-12-17T05:00:23.524Z,20.6
2022-12-17T05:01:24.247Z,21.1
2022-12-17T05:02:24.902Z,20.3
2022-12-17T05:03:25.559Z,20.7
2022-12-17T05:04:26.110Z,21.2
2022-12-17T05:05:26.700Z,20.9
2022-12-17T05:06:27.296Z,21.5
2022-12-17T05:07:27.885Z,21.9
2022-12-17T05:08:28.481Z,21.1
2022-12-17T05:09:29.093Z,21.1
2022-12-17T05:10:29.694Z,21.3
2022-12-17T05:11:30.281Z,21.5
2022-12-17T05:12:30.876Z,20.7
2022-12-17T05:13:31.470Z,20.5
2022-12-17T05:14:32.085Z,21.8
2022-12-17T05:15:32.735Z,21.3
2022-12-17T05:16:33.297Z,20.1
2022-12-17T05:17:33.868Z,20.2
2022-12-17T05:18:34.462Z,20.7
2022-12-17T05:19:35.053Z,21.3
2022-12-17T05:20:35.665Z,21.2
2022-12-17T05:21:36.261Z,21.4
2022-12-17T05:22:36.856Z,21.3
2022-12-17T05:23:37.631Z,23.5
2022-12-17T05:24:38.370Z,22.7
2022-12-17T05:25:38.965Z,23.6
2022-12-17T05:26:39.559Z,22.5
2022-12-17T05:27:40.171Z,22.3
2022-12-17T05:28:40.766Z,22.0
2022-12-17T05:29:41.361Z,21.2
2022-12-17T05:30:41.976Z,22.4
2022-12-17T05:31:42.616Z,19.6
2022-12-17T05:32:43.188Z,19.8
2022-12-17T05:33:43.779Z,20.4
2022-12-17T05:34:44.373Z,20.6
2022-12-17T05:35:44.967Z,23.4
2022-12-17T05:36:45.559Z,21.0
2022-12-17T05:37:46.155Z,21.7
2022-12-17T05:38:46.766Z,20.5
2022-12-17T05:39:47.360Z,20.7
2022-12-17T05:40:47.957Z,21.4
2022-12-17T05:41:48.550Z,20.0
2022-12-17T05:42:49.146Z,20.2
2022-12-17T05:43:49.739Z,19.3
2022-12-17T05:44:50.333Z,19.9
2022-12-17T05:45:50.925Z,19.5
2022-12-17T05:46:51.606Z,20.3
2022-12-17T05:47:52.188Z,18.4
2022-12-17T05:48:52.786Z,18.0
2022-12-17T05:49:53.376Z,19.3
2022-12-17T05:50:54.963Z,21.3
2022-12-17T05:51:55.558Z,21.7
2022-12-17T05:52:56.152Z,20.4
2022-12-17T05:53:56.747Z,24.6
2022-12-17T05:54:57.362Z,19.8
2022-12-17T05:55:57.955Z,20.3
2022-12-17T05:56:58.549Z,19.6
2022-12-17T05:57:59.142Z,21.1
2022-12-17T05:58:59.737Z,20.0
2022-12-17T06:00:00.332Z,22.4
2022-12-17T06:01:00.924Z,23.7
2022-12-17T06:02:01.601Z,23.3
2022-12-17T06:03:02.244Z,21.8
2022-12-17T06:04:02.801Z,21.1
2022-12-17T06:05:03.350Z,20.8
2022-12-17T06:06:03.961Z,19.4
2022-12-17T06:07:04.560Z,19.8
2022-12-17T06:08:05.170Z,20.7
2022-12-17T06:09:05.765Z,20.7
2022-12-17T06:10:06.377Z,20.0
2022-12-17T06:11:06.973Z,19.5
2022-12-17T06:12:07.588Z,18.7
2022-12-17T06:13:08.179Z,19.2
2022-12-17T06:14:08.771Z,19.0
2022-12-17T06:15:09.367Z,20.8
2022-12-17T06:16:10.049Z,20.0
2022-12-17T06:17:10.611Z,19.7
2022-12-17T06:18:16.462Z,19.2
2022-12-17T06:19:12.793Z,19.0
2022-12-17T06:20:13.384Z,18.3
2022-12-17T06:21:13.978Z,18.2
2022-12-17T06:22:14.575Z,18.9
2022-12-17T06:23:15.165Z,18.7
2022-12-17T06:24:15.759Z,19.1
2022-12-17T06:25:16.353Z,18.4
2022-12-17T06:26:16.949Z,18.0
2022-12-17T06:27:17.560Z,19.3
2022-12-17T06:28:18.150Z,17.8
2022-12-17T06:29:18.745Z,18.7
2022-12-17T06:30:19.352Z,21.1
2022-12-17T06:31:19.991Z,20.8
2022-12-17T06:32:20.564Z,22.5
2022-12-17T06:33:21.158Z,22.4
2022-12-17T06:34:21.754Z,22.5
2022-12-17T06:35:22.343Z,23.0
2022-12-17T06:36:23.179Z,21.4
2022-12-17T06:37:23.565Z,20.6
2022-12-17T06:38:24.158Z,20.9
2022-12-17T06:39:24.752Z,21.8
2022-12-17T06:40:25.365Z,21.1
2022-12-17T06:41:25.958Z,21.3
2022-12-17T06:42:26.553Z,21.3
2022-12-17T06:43:27.172Z,21.5
2022-12-17T06:44:27.762Z,21.0
2022-12-17T06:45:28.356Z,21.0
2022-12-17T06:46:29.141Z,22.3
2022-12-17T06:47:29.734Z,21.3
2022-12-17T06:48:30.329Z,20.0
2022-12-17T06:49:30.922Z,19.8
2022-12-17T06:50:31.515Z,18.8
2022-12-17T06:51:32.115Z,18.6
2022-12-17T06:52:32.706Z,19.8
2022-12-17T06:53:33.536Z,19.1
2022-12-17T06:54:34.173Z,19.4
2022-12-17T06:55:34.764Z,18.5
2022-12-17T06:56:35.358Z,19.1
2022-12-17T06:57:40.504Z,17.3
2022-12-17T06:58:37.576Z,18.3
2022-12-17T06:59:38.176Z,20.3
2022-12-17T07:00:38.807Z,19.8
2022-12-17T07:01:39.529Z,20.1
2022-12-17T07:02:40.082Z,19.2
2022-12-17T07:03:40.684Z,18.8
2022-12-17T07:04:41.277Z,18.6
2022-12-17T07:05:41.892Z,17.4
2022-12-17T07:06:42.487Z,16.7
2022-12-17T07:07:43.080Z,16.5
2022-12-17T07:08:43.676Z,16.6
2022-12-17T07:09:44.292Z,15.6
2022-12-17T07:10:44.886Z,16.0
2022-12-17T07:11:45.573Z,15.7
2022-12-17T07:12:46.088Z,14.9
2022-12-17T07:13:46.683Z,15.8
2022-12-17T07:14:47.278Z,15.4
2022-12-17T07:15:47.874Z,15.2
2022-12-17T07:16:48.552Z,15.6
2022-12-17T07:17:49.153Z,15.1
2022-12-17T07:18:49.751Z,20.0
2022-12-17T07:19:50.369Z,34.6
2022-12-17T07:20:50.966Z,34.2
2022-12-17T07:21:51.563Z,24.6
2022-12-17T07:22:52.162Z,118.3
2022-12-17T07:23:52.763Z,79.7
2022-12-17T07:24:53.356Z,43.0
2022-12-17T07:25:53.952Z,57.9
2022-12-17T07:26:54.571Z,28.9
2022-12-17T07:27:55.161Z,19.8
2022-12-17T07:28:55.780Z,17.7
2022-12-17T07:29:56.374Z,18.6
2022-12-17T07:30:56.973Z,17.1
2022-12-17T07:31:57.602Z,17.1
2022-12-17T07:32:58.245Z,17.7
2022-12-17T07:33:58.842Z,18.3
2022-12-17T07:34:59.437Z,17.1
2022-12-17T07:36:00.036Z,18.1
2022-12-17T07:37:00.855Z,18.0
2022-12-17T07:38:01.264Z,19.3
2022-12-17T07:39:01.880Z,19.1
2022-12-17T07:40:02.482Z,17.8
2022-12-17T07:41:03.071Z,18.0
2022-12-17T07:42:03.665Z,18.7
2022-12-17T07:43:04.282Z,17.4
2022-12-17T07:44:04.879Z,19.8
2022-12-17T07:45:05.478Z,19.0
2022-12-17T07:46:06.146Z,19.0
2022-12-17T07:47:06.706Z,18.1
2022-12-17T07:48:07.303Z,17.6
2022-12-17T07:49:07.903Z,18.6
2022-12-17T07:50:08.498Z,18.4
2022-12-17T07:51:09.096Z,18.9
2022-12-17T07:52:09.713Z,16.9
2022-12-17T07:53:10.309Z,17.2
2022-12-17T07:54:10.908Z,17.4
2022-12-17T07:55:16.732Z,18.2
2022-12-17T07:56:13.093Z,20.6
2022-12-17T07:57:13.690Z,16.0
2022-12-17T07:58:14.286Z,17.1
2022-12-17T07:59:14.883Z,15.9
2022-12-17T08:00:15.480Z,16.5
2022-12-17T08:01:16.150Z,17.0
2022-12-17T08:02:16.979Z,17.0
2022-12-17T08:03:17.772Z,16.7
2022-12-17T08:04:18.440Z,16.7
2022-12-17T08:05:19.056Z,16.9
2022-12-17T08:06:19.655Z,16.3
2022-12-17T08:07:20.251Z,16.5
2022-12-17T08:08:20.866Z,17.0
2022-12-17T08:09:21.466Z,16.6
2022-12-17T08:10:22.063Z,18.0
2022-12-17T08:11:22.661Z,16.0
2022-12-17T08:12:23.261Z,15.4
2022-12-17T08:13:23.859Z,15.8
2022-12-17T08:14:24.458Z,18.1
2022-12-17T08:15:25.055Z,19.9
2022-12-17T08:16:25.675Z,19.1
2022-12-17T08:17:26.256Z,20.0
2022-12-17T08:18:27.139Z,20.7
2022-12-17T08:19:27.680Z,22.1
2022-12-17T08:20:28.278Z,21.3
2022-12-17T08:21:28.879Z,21.7
2022-12-17T08:22:29.475Z,22.0
2022-12-17T08:23:30.075Z,21.8
2022-12-17T08:24:30.693Z,22.8
2022-12-17T08:25:31.291Z,22.7
2022-12-17T08:26:31.891Z,21.1
2022-12-17T08:27:32.510Z,20.6
2022-12-17T08:28:50.079Z,20.3
2022-12-17T08:29:34.582Z,21.9
2022-12-17T08:30:35.229Z,23.8
2022-12-17T08:31:35.792Z,23.5
2022-12-17T08:32:36.390Z,23.6
2022-12-17T08:33:37.301Z,22.3
2022-12-17T08:34:38.178Z,24.1
2022-12-17T08:35:38.766Z,22.8
2022-12-17T08:36:39.366Z,25.4
2022-12-17T08:37:39.983Z,26.0
2022-12-17T08:38:40.581Z,26.1
2022-12-17T08:39:41.183Z,26.1
2022-12-17T08:40:41.799Z,26.2
2022-12-17T08:41:42.401Z,26.7
2022-12-17T08:42:42.998Z,27.9
2022-12-17T08:43:43.598Z,29.1
2022-12-17T08:44:44.196Z,29.5
2022-12-17T08:45:44.819Z,27.5
2022-12-17T08:46:45.387Z,29.2
2022-12-17T08:47:45.988Z,29.6
2022-12-17T08:48:46.584Z,27.9
2022-12-17T08:49:47.185Z,28.9
2022-12-17T08:50:47.783Z,29.2
2022-12-17T08:51:48.384Z,27.5
2022-12-17T08:52:48.981Z,28.0
2022-12-17T08:53:49.582Z,29.0
2022-12-17T08:54:50.182Z,29.5
2022-12-17T08:55:50.777Z,28.6
2022-12-17T08:56:51.381Z,28.2
2022-12-17T08:57:52.937Z,28.3
2022-12-17T08:58:58.985Z,27.0
2022-12-17T08:59:55.129Z,26.5
2022-12-17T09:00:55.800Z,25.3
2022-12-17T09:01:57.416Z,23.9
2022-12-17T09:02:58.137Z,24.8
2022-12-17T09:03:58.746Z,26.0
2022-12-17T09:04:59.347Z,23.9
2022-12-17T09:05:59.945Z,25.9
2022-12-17T09:07:00.546Z,25.2
2022-12-17T09:08:01.144Z,26.2
2022-12-17T09:09:01.764Z,24.8
2022-12-17T09:10:02.361Z,26.2
2022-12-17T09:11:02.960Z,24.9
2022-12-17T09:12:03.582Z,26.3
2022-12-17T09:13:05.129Z,26.7
2022-12-17T09:14:05.775Z,25.5
2022-12-17T09:15:06.374Z,25.4
2022-12-17T09:16:06.968Z,25.0
2022-12-17T09:17:07.670Z,25.5
2022-12-17T09:18:08.255Z,25.7
2022-12-17T09:19:08.851Z,24.3
2022-12-17T09:20:09.453Z,24.5
2022-12-17T09:21:10.050Z,24.5
2022-12-17T09:22:10.649Z,24.2
2022-12-17T09:23:11.246Z,24.3
2022-12-17T09:24:11.850Z,24.7
2022-12-17T09:25:12.445Z,23.4
2022-12-17T09:26:13.045Z,23.8
2022-12-17T09:27:13.646Z,24.8
2022-12-17T09:28:14.244Z,24.3
2022-12-17T09:29:14.843Z,23.4
2022-12-17T09:30:15.445Z,25.3
2022-12-17T09:31:16.091Z,25.8
2022-12-17T09:32:16.689Z,26.0
2022-12-17T09:33:17.288Z,26.2
2022-12-17T09:34:17.887Z,27.2
2022-12-17T09:35:18.487Z,28.3
2022-12-17T09:36:19.107Z,27.4
2022-12-17T09:37:19.706Z,27.6
2022-12-17T09:38:20.304Z,27.5
2022-12-17T09:39:20.904Z,29.3
2022-12-17T09:40:21.504Z,29.5
2022-12-17T09:41:22.105Z,30.6
2022-12-17T09:42:22.724Z,27.7
2022-12-17T09:43:23.343Z,27.2
2022-12-17T09:44:23.943Z,28.4
2022-12-17T09:45:24.542Z,27.1
2022-12-17T09:46:25.171Z,31.7
2022-12-17T09:47:25.741Z,29.6
2022-12-17T09:48:30.904Z,29.1
2022-12-17T09:49:27.934Z,30.1
2022-12-17T09:50:28.535Z,27.4
2022-12-17T09:51:29.136Z,26.9
2022-12-17T09:52:29.735Z,27.0
2022-12-17T09:53:30.335Z,27.7
2022-12-17T09:54:30.944Z,26.6
2022-12-17T09:55:31.533Z,26.0
2022-12-17T09:56:32.135Z,25.4
2022-12-17T09:57:32.734Z,23.8
2022-12-17T09:58:33.333Z,25.6
2022-12-17T09:59:33.938Z,25.2
2022-12-17T10:00:34.534Z,25.1
2022-12-17T10:01:35.305Z,26.5
2022-12-17T10:02:36.267Z,26.0
2022-12-17T10:03:37.456Z,24.7
2022-12-17T10:04:38.290Z,26.2
2022-12-17T10:05:38.889Z,25.5
2022-12-17T10:06:39.492Z,24.9
2022-12-17T10:07:40.089Z,26.0
2022-12-17T10:08:40.691Z,24.2
2022-12-17T10:09:41.288Z,26.2
2022-12-17T10:10:41.891Z,26.3
2022-12-17T10:11:42.488Z,26.5
2022-12-17T10:12:43.089Z,26.9
2022-12-17T10:13:43.687Z,25.5
2022-12-17T10:14:44.287Z,28.2
2022-12-17T10:15:44.936Z,27.5
2022-12-17T10:16:45.510Z,26.1
2022-12-17T10:17:46.129Z,28.1
2022-12-17T10:18:46.731Z,26.8
2022-12-17T10:19:47.330Z,28.8
2022-12-17T10:20:47.949Z,27.4
2022-12-17T10:21:48.549Z,27.2
2022-12-17T10:22:49.151Z,27.9
2022-12-17T10:23:49.754Z,29.2
2022-12-17T10:24:50.374Z,29.4
2022-12-17T10:25:50.974Z,29.4
2022-12-17T10:26:51.575Z,32.0
2022-12-17T10:27:52.176Z,33.0
2022-12-17T10:28:52.792Z,32.8
2022-12-17T10:29:53.399Z,33.0
2022-12-17T10:30:54.859Z,34.4
2022-12-17T10:31:55.446Z,33.6
2022-12-17T10:32:56.048Z,34.1
2022-12-17T10:33:56.647Z,34.0
2022-12-17T10:35:03.353Z,35.3
2022-12-17T10:35:58.858Z,33.9
2022-12-17T10:36:59.459Z,37.0
2022-12-17T10:38:00.070Z,34.7
2022-12-17T10:39:00.658Z,31.4
2022-12-17T10:40:01.262Z,32.7
2022-12-17T10:41:01.859Z,33.3
2022-12-17T10:42:02.460Z,33.8
2022-12-17T10:43:03.058Z,32.5
2022-12-17T10:44:03.655Z,33.1
2022-12-17T10:45:04.258Z,31.9
2022-12-17T10:46:04.894Z,33.1
2022-12-17T10:47:05.457Z,33.0
2022-12-17T10:48:06.053Z,32.2
2022-12-17T10:49:11.260Z,33.4
2022-12-17T10:50:08.246Z,34.8
2022-12-17T10:51:08.845Z,35.7
2022-12-17T10:52:09.443Z,35.6
2022-12-17T10:53:10.045Z,36.2
2022-12-17T10:54:10.656Z,36.9
2022-12-17T10:55:11.245Z,36.7
2022-12-17T10:56:11.843Z,37.7
2022-12-17T10:57:12.449Z,37.4
2022-12-17T10:58:13.045Z,37.8
2022-12-17T10:59:13.646Z,36.9
2022-12-17T11:00:14.344Z,35.3
2022-12-17T11:01:14.985Z,35.6
2022-12-17T11:02:15.850Z,38.6
2022-12-17T11:03:16.262Z,37.3
2022-12-17T11:04:16.844Z,37.2
2022-12-17T11:05:17.441Z,37.6
2022-12-17T11:06:18.040Z,37.5
2022-12-17T11:07:18.642Z,38.0
2022-12-17T11:08:19.242Z,38.2
2022-12-17T11:09:19.840Z,37.4
2022-12-17T11:10:20.441Z,40.7
2022-12-17T11:11:21.038Z,39.5
2022-12-17T11:12:24.602Z,37.4
2022-12-17T11:13:23.233Z,39.3
2022-12-17T11:14:23.834Z,39.4
2022-12-17T11:15:24.436Z,39.8
2022-12-17T11:16:25.105Z,38.1
2022-12-17T11:17:25.672Z,39.5
2022-12-17T11:18:26.273Z,39.6
2022-12-17T11:19:26.893Z,39.2
2022-12-17T11:20:27.496Z,38.6
2022-12-17T11:21:28.098Z,40.2
2022-12-17T11:22:28.700Z,40.4
2022-12-17T11:23:29.300Z,39.2
2022-12-17T11:24:29.903Z,40.3
2022-12-17T11:25:30.504Z,39.3
2022-12-17T11:26:31.104Z,39.0
2022-12-17T11:27:31.704Z,39.3
2022-12-17T11:28:32.307Z,38.7
2022-12-17T11:29:32.909Z,39.5
2022-12-17T11:30:33.526Z,39.2
2022-12-17T11:31:34.179Z,38.3
2022-12-17T11:32:34.741Z,37.9
2022-12-17T11:33:35.717Z,37.8
2022-12-17T11:34:36.398Z,37.7
2022-12-17T11:35:36.999Z,37.7
2022-12-17T11:36:39.265Z,38.2
2022-12-17T11:37:39.190Z,36.5
2022-12-17T11:38:40.288Z,37.2
2022-12-17T11:39:40.920Z,37.3
2022-12-17T11:40:41.523Z,36.7
2022-12-17T11:41:42.124Z,34.5
2022-12-17T11:42:42.726Z,34.6
2022-12-17T11:43:43.326Z,35.1
2022-12-17T11:44:43.935Z,33.1
2022-12-17T11:45:44.531Z,35.1
2022-12-17T11:46:45.180Z,36.5
2022-12-17T11:47:45.778Z,34.6
2022-12-17T11:48:46.399Z,35.0
2022-12-17T11:49:47.020Z,35.3
2022-12-17T11:50:47.625Z,35.4
2022-12-17T11:51:48.223Z,34.3
2022-12-17T11:52:48.826Z,34.2
2022-12-17T11:53:49.426Z,37.2
2022-12-17T11:54:50.028Z,37.3
2022-12-17T11:55:50.631Z,38.0
2022-12-17T11:56:51.254Z,35.6
2022-12-17T11:57:51.852Z,36.1
2022-12-17T11:58:52.455Z,35.8
2022-12-17T11:59:56.084Z,36.7
2022-12-17T12:00:53.673Z,36.2
2022-12-17T12:01:54.324Z,36.5
2022-12-17T12:02:54.986Z,36.9
2022-12-17T12:03:55.589Z,36.8
2022-12-17T12:04:56.157Z,37.7
2022-12-17T12:05:57.174Z,37.3
2022-12-17T12:06:57.778Z,38.3
2022-12-17T12:07:58.399Z,36.9
2022-12-17T12:08:59.048Z,38.8
2022-12-17T12:09:59.631Z,37.7
2022-12-17T12:11:00.233Z,36.8
2022-12-17T12:12:00.836Z,35.5
2022-12-17T12:13:01.454Z,36.3
2022-12-17T12:14:02.054Z,36.4
2022-12-17T12:15:02.655Z,34.3
2022-12-17T12:16:03.301Z,34.9
2022-12-17T12:17:03.857Z,34.8
2022-12-17T12:18:04.455Z,35.6
2022-12-17T12:19:05.064Z,35.4
2022-12-17T12:20:05.680Z,35.4
2022-12-17T12:21:06.299Z,35.6
2022-12-17T12:22:06.909Z,35.1
2022-12-17T12:23:07.518Z,35.6
2022-12-17T12:24:08.117Z,35.2
2022-12-17T12:25:08.720Z,35.7
2022-12-17T12:26:09.319Z,35.1
2022-12-17T12:27:09.922Z,36.1
2022-12-17T12:28:10.525Z,37.2
2022-12-17T12:29:11.142Z,36.8
2022-12-17T12:30:11.765Z,38.3
2022-12-17T12:31:12.409Z,37.9
2022-12-17T12:32:13.002Z,37.8
2022-12-17T12:33:13.598Z,36.4
2022-12-17T12:34:14.199Z,37.3
2022-12-17T12:35:14.824Z,35.4
2022-12-17T12:36:15.435Z,36.0
2022-12-17T12:37:16.053Z,36.0
2022-12-17T12:38:16.653Z,30.9
2022-12-17T12:39:17.257Z,31.3
2022-12-17T12:40:17.859Z,36.3
2022-12-17T12:41:18.479Z,38.7
2022-12-17T12:42:19.076Z,36.7
2022-12-17T12:43:19.677Z,36.3
2022-12-17T12:44:20.279Z,36.9
2022-12-17T12:45:20.884Z,37.0
2022-12-17T12:46:21.592Z,36.2
2022-12-17T12:47:22.096Z,37.4
2022-12-17T12:48:22.717Z,37.7
2022-12-17T12:49:23.335Z,36.5
2022-12-17T12:50:23.941Z,37.5
2022-12-17T12:51:28.181Z,37.5
2022-12-17T12:52:26.152Z,37.8
2022-12-17T12:53:26.756Z,36.8
2022-12-17T12:54:27.357Z,36.5
2022-12-17T12:55:27.958Z,36.6
2022-12-17T12:56:28.559Z,35.2
2022-12-17T12:57:33.761Z,37.5
2022-12-17T12:58:30.757Z,36.8
2022-12-17T12:59:31.359Z,36.2
2022-12-17T13:00:32.015Z,37.9
2022-12-17T13:01:32.714Z,38.0
2022-12-17T13:02:33.557Z,38.4
2022-12-17T13:03:39.356Z,36.4
2022-12-17T13:04:35.744Z,37.8
2022-12-17T13:05:36.344Z,38.2
2022-12-17T13:06:36.944Z,37.0
2022-12-17T13:07:37.550Z,37.3
2022-12-17T13:08:38.567Z,36.8
2022-12-17T13:09:39.389Z,38.1
2022-12-17T13:10:39.992Z,37.6
2022-12-17T13:11:40.596Z,37.7
2022-12-17T13:12:41.197Z,37.5
2022-12-17T13:13:41.797Z,36.8
2022-12-17T13:14:42.398Z,36.6
2022-12-17T13:15:43.000Z,36.4
2022-12-17T13:16:43.648Z,38.3
2022-12-17T13:17:44.236Z,35.9
2022-12-17T13:18:44.836Z,36.4
2022-12-17T13:19:45.436Z,36.0
2022-12-17T13:20:46.039Z,36.6
2022-12-17T13:21:46.640Z,38.0
2022-12-17T13:22:47.241Z,37.6
2022-12-17T13:23:47.841Z,36.7
2022-12-17T13:24:48.444Z,36.1
2022-12-17T13:25:49.047Z,36.9
2022-12-17T13:26:49.646Z,36.8